TAF KACT
AMD KACT 280728Z 2807/2906 26003KT 5SM BR VCSH SCT015 OVC035 TEMPO 2807/2810 4SM -RA BR BKN012 FM281300 34007KT P6SM BKN012 FM281600 01011KT P6SM SKC=
METAR KACT
WC KACT
WS KACT
WV KACT